createdAt,value
2018-05-15T00:01:40.370Z,4.90
2018-05-15T00:04:07.763Z,5.03
2018-05-15T00:06:35.246Z,4.90
2018-05-15T00:09:02.656Z,4.62
2018-05-15T00:11:30.056Z,4.83
2018-05-15T00:13:57.452Z,4.80
2018-05-15T00:16:24.831Z,4.83
2018-05-15T00:18:52.334Z,4.83
2018-05-15T00:21:19.714Z,5.40
2018-05-15T00:23:47.823Z,4.35
2018-05-15T00:26:15.284Z,4.97
2018-05-15T00:28:42.672Z,5.30
2018-05-15T00:31:10.047Z,4.73
2018-05-15T00:33:37.432Z,5.53
2018-05-15T00:36:04.808Z,5.30
2018-05-15T00:38:32.195Z,5.27
2018-05-15T00:40:59.571Z,4.78
2018-05-15T00:43:26.957Z,5.73
2018-05-15T00:45:54.339Z,4.93
2018-05-15T00:48:21.719Z,5.27
2018-05-15T00:50:49.110Z,4.90
2018-05-15T00:53:16.566Z,5.70
2018-05-15T00:55:44.021Z,4.40
2018-05-15T00:58:11.403Z,5.67
2018-05-15T01:00:38.782Z,5.20
2018-05-15T01:03:06.170Z,5.50
2018-05-15T01:05:33.557Z,5.12
2018-05-15T01:08:00.935Z,4.97
2018-05-15T01:10:28.318Z,5.17
2018-05-15T01:12:55.725Z,5.20
2018-05-15T01:15:23.109Z,5.23
2018-05-15T01:17:50.656Z,5.00
2018-05-15T01:20:18.135Z,5.70
2018-05-15T01:22:45.555Z,5.43
2018-05-15T01:25:12.926Z,4.77
2018-05-15T01:27:40.352Z,5.27
2018-05-15T01:30:07.737Z,5.53
2018-05-15T01:32:35.119Z,5.10
2018-05-15T01:35:02.526Z,5.33
2018-05-15T01:37:29.903Z,5.10
2018-05-15T01:39:57.297Z,5.20
2018-05-15T01:42:24.684Z,5.33
2018-05-15T01:44:52.111Z,5.07
2018-05-15T01:47:19.483Z,5.30
2018-05-15T01:49:46.873Z,5.87
2018-05-15T01:52:14.251Z,5.22
2018-05-15T01:54:41.639Z,5.13
2018-05-15T01:57:09.187Z,4.50
2018-05-15T01:59:36.596Z,5.17
2018-05-15T02:02:04.187Z,4.95
2018-05-15T02:04:31.587Z,5.07
2018-05-15T02:06:58.971Z,5.17
2018-05-15T02:09:26.354Z,5.85
2018-05-15T02:11:53.751Z,5.18
2018-05-15T02:14:21.136Z,4.97
2018-05-15T02:16:49.477Z,5.03
2018-05-15T02:19:16.871Z,4.90
2018-05-15T02:21:44.245Z,5.43
2018-05-15T02:24:11.625Z,5.27
2018-05-15T02:26:39.012Z,5.03
2018-05-15T02:29:06.386Z,5.07
2018-05-15T02:31:33.769Z,5.67
2018-05-15T02:34:01.145Z,5.33
2018-05-15T02:36:28.538Z,6.10
2018-05-15T02:38:55.908Z,5.37
2018-05-15T02:41:23.292Z,5.70
2018-05-15T02:43:50.664Z,4.60
2018-05-15T02:46:18.548Z,5.10
2018-05-15T02:48:45.939Z,5.40
2018-05-15T02:51:13.323Z,5.87
2018-05-15T02:53:40.705Z,4.90
2018-05-15T02:56:08.075Z,5.13
2018-05-15T02:58:35.796Z,5.63
2018-05-15T03:01:03.160Z,5.53
2018-05-15T03:03:30.540Z,5.73
2018-05-15T03:05:57.945Z,5.18
2018-05-15T03:08:25.321Z,5.30
2018-05-15T03:10:52.703Z,4.70
2018-05-15T03:13:20.079Z,5.90
2018-05-15T03:15:47.467Z,5.13
2018-05-15T03:18:14.841Z,5.00
2018-05-15T03:20:42.226Z,4.60
2018-05-15T03:23:09.595Z,4.85
2018-05-15T03:25:36.976Z,5.73
2018-05-15T03:28:04.348Z,5.83
2018-05-15T03:30:31.735Z,5.80
2018-05-15T03:32:59.116Z,5.62
2018-05-15T03:35:26.507Z,5.40
2018-05-15T03:37:53.882Z,5.30
2018-05-15T03:40:21.329Z,5.30
2018-05-15T03:42:48.890Z,5.20
2018-05-15T03:45:16.319Z,5.67
2018-05-15T03:47:43.705Z,6.30
2018-05-15T03:50:11.099Z,5.90
2018-05-15T03:52:38.480Z,4.93
2018-05-15T03:55:05.864Z,5.53
2018-05-15T03:57:33.501Z,5.37
2018-05-15T04:00:00.873Z,6.20
2018-05-15T04:02:40.011Z,5.30
2018-05-15T04:05:19.186Z,5.10
2018-05-15T04:08:11.162Z,5.43
2018-05-15T04:10:38.547Z,5.97
2018-05-15T04:13:05.952Z,5.83
2018-05-15T04:15:33.339Z,5.60
2018-05-15T04:18:00.715Z,5.62
2018-05-15T04:20:28.109Z,6.03
2018-05-15T04:22:55.484Z,5.80
2018-05-15T04:25:22.867Z,6.37
2018-05-15T04:27:50.246Z,6.53
2018-05-15T04:30:17.938Z,6.00
2018-05-15T04:32:46.056Z,6.27
2018-05-15T04:35:13.453Z,6.23
2018-05-15T04:37:40.819Z,5.70
2018-05-15T04:40:08.208Z,5.63
2018-05-15T04:42:35.611Z,6.50
2018-05-15T04:45:02.974Z,5.70
2018-05-15T04:47:30.357Z,6.00
2018-05-15T04:49:57.770Z,5.90
2018-05-15T04:52:25.135Z,6.10
2018-05-15T04:54:52.515Z,6.77
2018-05-15T04:57:19.895Z,6.70
2018-05-15T04:59:47.269Z,6.70
2018-05-15T05:02:14.653Z,6.17
2018-05-15T05:04:42.056Z,5.47
2018-05-15T05:07:09.441Z,6.40
2018-05-15T05:09:36.820Z,6.22
2018-05-15T05:12:04.207Z,5.50
2018-05-15T05:14:31.583Z,6.50
2018-05-15T05:16:58.967Z,5.28
2018-05-15T05:19:26.382Z,6.80
2018-05-15T05:21:53.749Z,5.90
2018-05-15T05:24:21.230Z,5.93
2018-05-15T05:26:49.539Z,7.00
2018-05-15T05:29:16.913Z,6.67
2018-05-15T05:31:44.296Z,6.63
2018-05-15T05:34:11.672Z,6.80
2018-05-15T05:36:39.042Z,7.17
2018-05-15T05:39:06.446Z,5.82
2018-05-15T05:41:34.083Z,6.53
2018-05-15T05:44:01.491Z,6.67
2018-05-15T05:46:28.878Z,5.72
2018-05-15T05:48:56.298Z,6.07
2018-05-15T05:51:23.624Z,5.80
2018-05-15T05:53:50.995Z,6.83
2018-05-15T05:56:18.381Z,6.30
2018-05-15T05:58:45.754Z,6.07
2018-05-15T06:01:13.142Z,9.93
2018-05-15T06:03:40.638Z,5.93
2018-05-15T06:06:08.012Z,5.37
2018-05-15T06:08:35.386Z,6.60
2018-05-15T06:11:02.769Z,6.37
2018-05-15T06:13:30.150Z,6.43
2018-05-15T06:15:57.520Z,6.35
2018-05-15T06:18:24.898Z,7.40
2018-05-15T06:20:52.333Z,6.20
2018-05-15T06:23:19.706Z,7.30
2018-05-15T06:25:47.162Z,6.50
2018-05-15T06:28:14.539Z,6.37
2018-05-15T06:30:41.932Z,9.27
2018-05-15T06:33:09.313Z,6.13
2018-05-15T06:35:36.691Z,6.40
2018-05-15T06:38:04.077Z,6.40
2018-05-15T06:40:31.467Z,6.68
2018-05-15T06:42:58.850Z,6.87
2018-05-15T06:45:26.226Z,6.80
2018-05-15T06:47:54.328Z,5.85
2018-05-15T06:50:21.705Z,6.50
2018-05-15T06:52:49.818Z,6.77
2018-05-15T06:55:17.186Z,6.27
2018-05-15T06:57:46.280Z,5.87
2018-05-15T07:00:13.658Z,6.60
2018-05-15T07:02:41.037Z,5.30
2018-05-15T07:05:08.416Z,6.13
2018-05-15T07:07:36.006Z,6.20
2018-05-15T07:10:03.395Z,6.30
2018-05-15T07:12:30.778Z,6.20
2018-05-15T07:14:58.181Z,5.93
2018-05-15T07:17:25.584Z,6.68
2018-05-15T07:19:52.969Z,6.22
2018-05-15T07:22:20.346Z,6.10
2018-05-15T07:24:47.722Z,6.30
2018-05-15T07:27:15.108Z,6.03
2018-05-15T07:29:42.495Z,5.93
2018-05-15T07:32:09.868Z,5.70
2018-05-15T07:34:37.234Z,6.33
2018-05-15T07:37:04.614Z,6.33
2018-05-15T07:39:31.998Z,5.90
2018-05-15T07:42:00.317Z,5.47
2018-05-15T07:44:27.700Z,5.77
2018-05-15T07:46:55.105Z,5.90
2018-05-15T07:49:22.467Z,6.13
2018-05-15T07:51:50.168Z,6.13
2018-05-15T07:54:17.554Z,6.00
2018-05-15T07:56:44.950Z,6.40
2018-05-15T07:59:12.315Z,5.80
2018-05-15T08:01:39.727Z,5.87
2018-05-15T08:04:07.124Z,6.47
2018-05-15T08:06:34.507Z,5.23
2018-05-15T08:09:01.888Z,5.83
2018-05-15T08:11:29.443Z,5.68
2018-05-15T08:13:56.824Z,6.40
2018-05-15T08:16:24.274Z,5.73
2018-05-15T08:18:51.582Z,5.83
2018-05-15T08:21:18.961Z,4.97
2018-05-15T08:23:46.346Z,5.60
2018-05-15T08:26:13.718Z,5.83
2018-05-15T08:28:41.106Z,5.70
2018-05-15T08:31:08.484Z,5.80
2018-05-15T08:33:35.899Z,5.70
2018-05-15T08:36:03.287Z,6.13
2018-05-15T08:38:30.666Z,5.22
2018-05-15T08:40:58.060Z,6.40
2018-05-15T08:43:25.440Z,5.50
2018-05-15T08:45:52.817Z,5.70
2018-05-15T08:48:20.361Z,5.55
2018-05-15T08:50:47.779Z,5.63
2018-05-15T08:53:15.162Z,5.60
2018-05-15T08:55:42.763Z,5.13
2018-05-15T08:58:10.281Z,5.70
2018-05-15T09:00:37.662Z,5.87
2018-05-15T09:03:05.039Z,5.83
2018-05-15T09:05:32.489Z,6.20
2018-05-15T09:07:59.874Z,5.80
2018-05-15T09:10:27.248Z,6.00
2018-05-15T09:12:54.631Z,5.37
2018-05-15T09:15:22.017Z,5.97
2018-05-15T09:17:50.463Z,6.00
2018-05-15T09:20:17.942Z,5.37
2018-05-15T09:22:45.317Z,4.73
2018-05-15T09:25:12.691Z,5.33
2018-05-15T09:27:40.080Z,5.07
2018-05-15T09:30:07.451Z,5.13
2018-05-15T09:32:34.838Z,4.90
2018-05-15T09:35:02.220Z,4.85
2018-05-15T09:37:29.598Z,5.25
2018-05-15T09:39:57.071Z,5.30
2018-05-15T09:42:24.446Z,4.70
2018-05-15T09:44:52.220Z,4.63
2018-05-15T09:47:20.667Z,5.15
2018-05-15T09:49:48.079Z,4.63
2018-05-15T09:52:15.520Z,4.80
2018-05-15T09:54:42.854Z,4.70
2018-05-15T09:57:10.239Z,4.80
2018-05-15T09:59:37.611Z,4.05
2018-05-15T10:02:04.988Z,3.80
2018-05-15T10:04:32.378Z,3.60
2018-05-15T10:06:59.758Z,3.75
2018-05-15T10:09:27.157Z,3.85
2018-05-15T10:11:54.528Z,3.60
2018-05-15T10:14:22.111Z,3.43
2018-05-15T10:16:49.499Z,3.40
2018-05-15T10:19:16.955Z,3.17
2018-05-15T10:21:44.255Z,3.50
2018-05-15T10:24:12.430Z,3.60
2018-05-15T10:26:39.820Z,3.80
2018-05-15T10:29:07.210Z,3.42
2018-05-15T10:31:34.586Z,3.60
2018-05-15T10:34:01.968Z,4.00
2018-05-15T10:36:29.347Z,3.40
2018-05-15T10:38:56.727Z,3.53
2018-05-15T10:41:24.164Z,3.40
2018-05-15T10:43:51.592Z,3.60
2018-05-15T10:46:18.923Z,3.33
2018-05-15T10:48:46.519Z,4.63
2018-05-15T10:51:13.926Z,3.53
2018-05-15T10:53:41.505Z,3.90
2018-05-15T10:56:08.971Z,3.50
2018-05-15T10:58:36.364Z,3.53
2018-05-15T11:01:03.800Z,3.72
2018-05-15T11:03:31.226Z,3.87
2018-05-15T11:05:58.605Z,3.47
2018-05-15T11:08:25.991Z,3.57
2018-05-15T11:10:55.249Z,3.74
2018-05-15T11:13:22.633Z,3.60
2018-05-15T11:15:50.012Z,4.47
2018-05-15T11:18:29.158Z,3.50
2018-05-15T11:21:08.306Z,3.58
2018-05-15T11:23:47.548Z,4.10
2018-05-15T11:26:14.947Z,3.60
2018-05-15T11:28:42.340Z,3.73
2018-05-15T11:31:09.731Z,3.95
2018-05-15T11:33:37.375Z,4.10
2018-05-15T11:36:04.827Z,3.50
2018-05-15T11:38:32.160Z,3.50
2018-05-15T11:40:59.553Z,3.70
2018-05-15T11:43:27.070Z,3.40
2018-05-15T11:45:54.463Z,4.10
2018-05-15T11:48:22.332Z,3.90
2018-05-15T11:50:50.176Z,3.40
2018-05-15T11:53:17.299Z,4.27
2018-05-15T11:55:44.009Z,3.63
2018-05-15T11:58:11.410Z,5.10
2018-05-15T12:00:38.769Z,4.50
2018-05-15T12:03:06.148Z,3.95
2018-05-15T12:05:33.542Z,3.93
2018-05-15T12:08:01.030Z,3.70
2018-05-15T12:10:28.364Z,3.77
2018-05-15T12:12:55.735Z,3.97
2018-05-15T12:15:23.079Z,3.40
2018-05-15T12:17:51.538Z,4.40
2018-05-15T12:20:18.916Z,4.30
2018-05-15T12:22:46.303Z,3.83
2018-05-15T12:25:13.697Z,3.93
2018-05-15T12:27:43.321Z,4.00
2018-05-15T12:30:08.460Z,3.73
2018-05-15T12:32:35.877Z,3.90
2018-05-15T12:35:03.446Z,3.83
2018-05-15T12:37:30.829Z,3.70
2018-05-15T12:39:58.249Z,5.00
2018-05-15T12:42:25.612Z,4.75
2018-05-15T12:44:53.000Z,4.20
2018-05-15T12:47:20.371Z,4.67
2018-05-15T12:49:47.754Z,4.40
2018-05-15T12:52:15.143Z,4.70
2018-05-15T12:54:42.534Z,4.40
2018-05-15T12:57:09.916Z,4.60
2018-05-15T12:59:37.311Z,5.43
2018-05-15T13:02:04.704Z,4.32
2018-05-15T13:04:32.096Z,5.78
2018-05-15T13:06:59.480Z,4.22
2018-05-15T13:09:27.168Z,4.10
2018-05-15T13:11:54.544Z,3.90
2018-05-15T13:14:25.811Z,4.34
2018-05-15T13:16:53.182Z,4.03
2018-05-15T13:19:20.575Z,4.10
2018-05-15T13:21:47.951Z,4.60
2018-05-15T13:24:15.343Z,4.60
2018-05-15T13:26:42.718Z,4.30
2018-05-15T13:29:10.103Z,4.43
2018-05-15T13:31:37.479Z,3.60
2018-05-15T13:34:04.951Z,3.72
2018-05-15T13:36:32.307Z,3.70
2018-05-15T13:38:59.703Z,3.75
2018-05-15T13:41:27.255Z,4.10
2018-05-15T13:43:54.645Z,4.03
2018-05-15T13:46:22.029Z,3.63
2018-05-15T13:48:49.432Z,3.90
2018-05-15T13:51:16.834Z,3.50
2018-05-15T13:53:44.248Z,4.03
2018-05-15T13:56:11.662Z,4.17
2018-05-15T13:58:39.066Z,4.10
2018-05-15T14:01:06.450Z,4.37
2018-05-15T14:03:33.834Z,3.55
2018-05-15T14:06:01.241Z,4.27
2018-05-15T14:08:28.604Z,3.93
2018-05-15T14:10:56.000Z,3.67
2018-05-15T14:13:23.396Z,4.00
2018-05-15T14:15:50.792Z,3.67
2018-05-15T14:18:18.166Z,3.83
2018-05-15T14:20:45.559Z,4.40
2018-05-15T14:23:12.948Z,3.70
2018-05-15T14:25:40.332Z,4.27
2018-05-15T14:28:07.703Z,3.30
2018-05-15T14:30:35.092Z,3.92
2018-05-15T14:33:02.471Z,4.03
2018-05-15T14:35:29.855Z,4.15
2018-05-15T14:37:57.233Z,4.97
2018-05-15T14:40:27.890Z,4.10
2018-05-15T14:43:07.019Z,3.70
2018-05-15T14:45:34.376Z,4.23
2018-05-15T14:48:01.760Z,4.47
2018-05-15T14:50:29.144Z,3.90
2018-05-15T14:52:56.532Z,4.07
2018-05-15T14:55:23.919Z,5.53
2018-05-15T14:57:53.432Z,4.96
2018-05-15T15:00:20.815Z,4.50
2018-05-15T15:02:48.200Z,5.33
2018-05-15T15:05:15.584Z,4.60
2018-05-15T15:07:43.002Z,4.57
2018-05-15T15:10:10.405Z,4.20
2018-05-15T15:12:37.787Z,4.18
2018-05-15T15:15:05.426Z,4.47
2018-05-15T15:17:32.923Z,4.47
2018-05-15T15:20:00.227Z,4.53
2018-05-15T15:22:27.629Z,3.44
2018-05-15T15:24:55.035Z,4.07
2018-05-15T15:27:22.417Z,3.60
2018-05-15T15:29:49.815Z,3.70
2018-05-15T15:32:17.186Z,3.50
2018-05-15T15:34:44.583Z,3.80
2018-05-15T15:37:12.410Z,4.07
2018-05-15T15:39:39.790Z,3.78
2018-05-15T15:42:07.169Z,3.77
2018-05-15T15:44:34.578Z,3.97
2018-05-15T15:47:01.955Z,3.07
2018-05-15T15:49:29.399Z,3.27
2018-05-15T15:51:56.839Z,4.00
2018-05-15T15:54:24.229Z,3.90
2018-05-15T15:56:52.522Z,3.85
2018-05-15T15:59:19.923Z,3.77
2018-05-15T16:01:47.614Z,3.90
2018-05-15T16:04:15.111Z,3.30
2018-05-15T16:06:42.522Z,3.80
2018-05-15T16:09:09.900Z,3.47
2018-05-15T16:11:37.285Z,3.80
2018-05-15T16:14:04.662Z,3.90
2018-05-15T16:16:32.040Z,3.80
2018-05-15T16:18:59.425Z,3.92
2018-05-15T16:21:27.148Z,4.10
2018-05-15T16:23:54.526Z,4.07
2018-05-15T16:26:24.087Z,4.04
2018-05-15T16:28:51.458Z,4.90
2018-05-15T16:31:18.847Z,4.30
2018-05-15T16:33:46.231Z,4.90
2018-05-15T16:36:13.659Z,5.10
2018-05-15T16:38:41.039Z,4.20
2018-05-15T16:41:08.643Z,4.47
2018-05-15T16:43:36.425Z,4.87
2018-05-15T16:46:03.819Z,4.90
2018-05-15T16:48:31.192Z,5.03
2018-05-15T16:50:58.591Z,4.90
2018-05-15T16:53:25.996Z,4.70
2018-05-15T16:55:53.516Z,4.17
2018-05-15T16:58:20.982Z,4.60
2018-05-15T17:00:48.360Z,4.77
2018-05-15T17:03:15.929Z,4.05
2018-05-15T17:05:43.340Z,5.10
2018-05-15T17:08:10.782Z,5.10
2018-05-15T17:10:38.112Z,4.57
2018-05-15T17:13:05.487Z,5.10
2018-05-15T17:15:32.917Z,4.73
2018-05-15T17:18:00.279Z,5.50
2018-05-15T17:20:27.669Z,4.68
2018-05-15T17:22:55.059Z,4.30
2018-05-15T17:25:22.918Z,5.35
2018-05-15T17:27:50.299Z,4.80
2018-05-15T17:30:17.688Z,5.23
2018-05-15T17:32:45.073Z,5.33
2018-05-15T17:35:12.446Z,5.00
2018-05-15T17:37:39.830Z,5.75
2018-05-15T17:40:07.218Z,4.90
2018-05-15T17:42:34.594Z,5.80
2018-05-15T17:45:02.073Z,5.20
2018-05-15T17:47:29.515Z,5.00
2018-05-15T17:49:57.046Z,5.40
2018-05-15T17:52:24.475Z,5.30
2018-05-15T17:54:51.851Z,8.70
2018-05-15T17:57:19.494Z,6.07
2018-05-15T17:59:46.921Z,5.50
2018-05-15T18:02:14.263Z,5.27
2018-05-15T18:04:41.652Z,4.77
2018-05-15T18:07:09.039Z,4.73
2018-05-15T18:09:36.415Z,4.50
2018-05-15T18:12:03.801Z,3.53
2018-05-15T18:14:31.219Z,4.00
2018-05-15T18:16:58.616Z,3.03
2018-05-15T18:19:26.031Z,2.53
2018-05-15T18:21:53.431Z,2.87
2018-05-15T18:24:20.815Z,3.10
2018-05-15T18:26:48.200Z,3.30
2018-05-15T18:29:15.615Z,3.20
2018-05-15T18:31:42.989Z,3.20
2018-05-15T18:34:10.361Z,3.05
2018-05-15T18:36:37.759Z,3.70
2018-05-15T18:39:05.963Z,3.70
2018-05-15T18:41:33.302Z,3.60
2018-05-15T18:44:00.674Z,3.77
2018-05-15T18:46:28.063Z,3.60
2018-05-15T18:48:55.442Z,3.47
2018-05-15T18:51:23.287Z,3.50
2018-05-15T18:53:50.675Z,3.40
2018-05-15T18:56:18.062Z,3.63
2018-05-15T18:58:45.446Z,3.50
2018-05-15T19:01:12.835Z,3.53
2018-05-15T19:03:40.216Z,3.55
2018-05-15T19:06:07.619Z,3.27
2018-05-15T19:08:34.995Z,3.25
2018-05-15T19:11:02.388Z,3.73
2018-05-15T19:13:29.762Z,3.50
2018-05-15T19:15:57.175Z,3.63
2018-05-15T19:18:24.539Z,3.97
2018-05-15T19:20:51.943Z,3.43
2018-05-15T19:23:19.326Z,3.90
2018-05-15T19:25:46.711Z,3.70
2018-05-15T19:28:14.083Z,3.57
2018-05-15T19:30:41.472Z,3.78
2018-05-15T19:33:08.938Z,3.55
2018-05-15T19:35:41.064Z,3.97
2018-05-15T19:38:08.440Z,4.00
2018-05-15T19:40:41.765Z,3.60
2018-05-15T19:43:09.145Z,3.83
2018-05-15T19:45:36.523Z,4.37
2018-05-15T19:48:03.911Z,4.40
2018-05-15T19:50:31.300Z,3.35
2018-05-15T19:52:58.688Z,4.30
2018-05-15T19:55:26.063Z,3.50
2018-05-15T19:57:53.675Z,3.65
2018-05-15T20:00:21.054Z,4.00
2018-05-15T20:02:48.442Z,3.70
2018-05-15T20:05:15.813Z,3.47
2018-05-15T20:07:43.223Z,5.50
2018-05-15T20:10:10.599Z,4.32
2018-05-15T20:12:37.984Z,4.50
2018-05-15T20:15:05.356Z,4.07
2018-05-15T20:17:32.813Z,4.90
2018-05-15T20:20:00.226Z,4.85
2018-05-15T20:22:27.602Z,4.73
2018-05-15T20:24:55.208Z,5.30
2018-05-15T20:27:22.596Z,5.90
2018-05-15T20:29:50.046Z,4.83
2018-05-15T20:32:17.429Z,4.93
2018-05-15T20:34:44.897Z,5.50
2018-05-15T20:37:12.197Z,5.67
2018-05-15T20:39:39.723Z,4.87
2018-05-15T20:42:07.188Z,5.10
2018-05-15T20:44:34.562Z,5.37
2018-05-15T20:47:01.944Z,4.70
2018-05-15T20:49:29.318Z,5.20
2018-05-15T20:51:56.708Z,4.87
2018-05-15T20:54:24.090Z,5.10
2018-05-15T20:56:51.577Z,5.50
2018-05-15T20:59:19.230Z,5.90
2018-05-15T21:01:46.619Z,5.13
2018-05-15T21:04:14.129Z,5.10
2018-05-15T21:06:41.560Z,4.90
2018-05-15T21:09:09.023Z,4.83
2018-05-15T21:11:36.407Z,4.53
2018-05-15T21:14:03.846Z,4.57
2018-05-15T21:16:31.252Z,4.10
2018-05-15T21:18:58.639Z,4.87
2018-05-15T21:21:26.023Z,4.60
2018-05-15T21:23:53.996Z,5.32
2018-05-15T21:26:21.567Z,4.47
2018-05-15T21:28:48.952Z,4.60
2018-05-15T21:31:16.340Z,5.20
2018-05-15T21:33:43.727Z,5.93
2018-05-15T21:36:11.101Z,5.70
2018-05-15T21:38:38.491Z,5.30
2018-05-15T21:41:05.863Z,4.93
2018-05-15T21:43:33.250Z,4.87
2018-05-15T21:46:00.653Z,4.30
2018-05-15T21:48:28.061Z,5.23
2018-05-15T21:50:55.452Z,5.20
2018-05-15T21:53:22.840Z,5.10
2018-05-15T21:55:50.457Z,4.20
2018-05-15T21:58:17.849Z,5.37
2018-05-15T22:00:45.471Z,5.37
2018-05-15T22:03:13.104Z,5.33
2018-05-15T22:05:40.484Z,5.93
2018-05-15T22:08:07.880Z,15.20
2018-05-15T22:10:35.457Z,11.13
2018-05-15T22:13:14.625Z,19.20
2018-05-15T22:15:53.901Z,9.80
2018-05-15T22:18:33.196Z,10.27
2018-05-15T22:21:12.254Z,12.50
2018-05-15T22:23:39.132Z,15.80
2018-05-15T22:26:06.516Z,10.07
2018-05-15T22:28:33.908Z,7.93
2018-05-15T22:31:01.285Z,6.70
2018-05-15T22:33:28.659Z,6.67
2018-05-15T22:35:56.046Z,5.70
2018-05-15T22:38:24.484Z,6.70
2018-05-15T22:40:51.848Z,5.90
2018-05-15T22:43:19.451Z,6.57
2018-05-15T22:45:46.815Z,6.40
2018-05-15T22:48:14.199Z,6.10
2018-05-15T22:50:41.575Z,5.60
2018-05-15T22:53:08.956Z,5.90
2018-05-15T22:55:36.341Z,6.53
2018-05-15T22:58:03.754Z,6.80
2018-05-15T23:00:31.508Z,6.37
2018-05-15T23:02:58.964Z,6.07
2018-05-15T23:05:26.368Z,6.87
2018-05-15T23:07:54.455Z,6.00
2018-05-15T23:10:21.850Z,6.83
2018-05-15T23:12:49.236Z,5.83
2018-05-15T23:15:16.624Z,6.63
2018-05-15T23:17:44.011Z,5.90
2018-05-15T23:20:11.394Z,6.70
2018-05-15T23:22:43.684Z,6.95
2018-05-15T23:25:11.066Z,6.72
2018-05-15T23:27:38.506Z,7.53
2018-05-15T23:30:05.903Z,6.60
2018-05-15T23:32:33.295Z,6.80
2018-05-15T23:35:00.685Z,7.06
2018-05-15T23:37:28.076Z,7.10
2018-05-15T23:39:55.457Z,7.23
2018-05-15T23:42:23.119Z,7.80
2018-05-15T23:44:50.933Z,6.53
2018-05-15T23:47:18.578Z,6.00
2018-05-15T23:49:47.983Z,6.63
2018-05-15T23:52:15.450Z,6.70
2018-05-15T23:54:42.816Z,6.97
2018-05-15T23:57:10.328Z,7.13
2018-05-15T23:59:37.838Z,7.55
